KBKL

Burke Lakefront Airport

Cleveland, Ohio, USA
METAR KBKL 221725Z 00000KT 2SM VCTS BR OVC002 18/16 A2997 RMK AO2 LTG DSNT SW AND W T01780156
Observed Flight Rules
May-22 @ 17:25 UTC (25 minutes ago) Instrument Flight Rules
Visibility Clouds Conditions
2 miles
  • Overcast at 200' AGL
  • Area Thunderstorm
  • Mist
Temperatures Readings
Current 18°C / 64°F
Dewpoint 16°C / 61°F
Humidity 88%
Altimeter 29.97" Hg
Pressure 1015 hPa
Elevation 184
METAR KBKL 221725Z 00000KT 2SM VCTS BR OVC002 18/16 A2997 RMK AO2 LTG DSNT SW AND W T01780156
Observed Flight Rules
May-22 @ 17:25 UTC
(25 minutes ago)
LIFR
Clouds
  • Overcast at 200' AGL
Conditions
  • Area Thunderstorm
  • Mist
Temperature Dewpoint
18°C / 64°F 16°C / 61°F
Humidity Altimeter Pressure
88% 29.97" Hg 1015 hPa